createdAt,value
2023-05-12T00:05:44.683Z,5.60
2023-05-12T00:16:16.153Z,5.90
2023-05-12T00:26:19.262Z,5.20
2023-05-12T00:36:22.899Z,6.10
2023-05-12T00:46:27.524Z,4.80
2023-05-12T00:56:31.494Z,5.10
2023-05-12T01:06:46.354Z,4.40
2023-05-12T01:16:53.733Z,5.50
2023-05-12T01:26:56.975Z,4.80
2023-05-12T01:37:00.099Z,4.90
2023-05-12T01:47:04.173Z,4.70
2023-05-12T01:57:09.332Z,4.90
2023-05-12T02:07:15.832Z,4.60
2023-05-12T02:17:19.582Z,4.50
2023-05-12T02:27:23.891Z,3.80
2023-05-12T02:37:28.066Z,4.10
2023-05-12T02:47:33.181Z,4.10
2023-05-12T02:57:36.559Z,4.00
2023-05-12T03:07:39.753Z,4.30
2023-05-12T03:17:43.211Z,4.20
2023-05-12T03:27:47.782Z,4.50
2023-05-12T03:37:50.961Z,4.00
2023-05-12T03:47:54.372Z,5.00
2023-05-12T03:57:57.588Z,3.70
2023-05-12T04:08:01.907Z,4.80
2023-05-12T04:18:05.968Z,4.50
2023-05-12T04:28:12.100Z,4.90
2023-05-12T04:38:16.175Z,4.40
2023-05-12T04:48:20.127Z,4.20
2023-05-12T04:58:23.554Z,3.50
2023-05-12T05:08:27.487Z,4.50
2023-05-12T05:18:30.950Z,3.40
2023-05-12T05:28:34.771Z,2.70
2023-05-12T05:38:38.426Z,2.10
2023-05-12T05:48:41.661Z,2.10
2023-05-12T05:58:46.574Z,1.70
2023-05-12T06:08:49.690Z,2.10
2023-05-12T06:18:52.958Z,1.50
2023-05-12T06:28:56.412Z,1.60
2023-05-12T06:38:59.628Z,1.60
2023-05-12T06:49:03.103Z,1.50
2023-05-12T06:59:09.054Z,1.40
2023-05-12T07:09:12.052Z,1.60
2023-05-12T07:19:15.169Z,1.50
2023-05-12T07:29:19.020Z,1.50
2023-05-12T07:39:23.967Z,1.50
2023-05-12T07:49:27.178Z,1.60
2023-05-12T07:59:30.430Z,1.40
2023-05-12T08:09:33.472Z,1.10
2023-05-12T08:19:36.552Z,1.40
2023-05-12T08:29:39.730Z,1.30
2023-05-12T08:39:42.989Z,1.70
2023-05-12T08:49:55.748Z,1.30
2023-05-12T09:00:00.217Z,1.60
2023-05-12T09:10:05.249Z,1.70
2023-05-12T09:20:20.579Z,1.70
2023-05-12T09:30:38.367Z,1.80
2023-05-12T09:40:43.282Z,1.70
2023-05-12T09:50:48.942Z,1.30
2023-05-12T10:01:17.870Z,1.50
2023-05-12T10:11:16.824Z,1.80
2023-05-12T10:21:21.203Z,1.50
2023-05-12T10:31:26.081Z,1.50
2023-05-12T10:41:31.652Z,1.50
2023-05-12T10:51:48.809Z,1.70
2023-05-12T11:01:59.217Z,1.60
2023-05-12T11:12:04.799Z,1.60
2023-05-12T11:22:10.785Z,1.50
2023-05-12T11:32:15.881Z,1.50
2023-05-12T11:42:21.079Z,1.70
2023-05-12T11:52:25.388Z,1.30
2023-05-12T12:02:28.966Z,1.60
2023-05-12T12:12:32.362Z,1.30
2023-05-12T12:22:35.663Z,1.40
2023-05-12T12:32:38.813Z,1.40
2023-05-12T12:42:41.938Z,1.50
2023-05-12T12:52:45.493Z,1.30
2023-05-12T13:02:48.639Z,2.80
2023-05-12T13:12:51.971Z,1.40
2023-05-12T13:22:55.097Z,1.50
2023-05-12T13:32:58.203Z,1.70
2023-05-12T13:43:01.272Z,2.50
2023-05-12T13:53:04.469Z,2.20
2023-05-12T14:03:08.137Z,2.00
2023-05-12T14:13:11.387Z,1.70
2023-05-12T14:23:14.660Z,1.40
2023-05-12T14:33:17.771Z,2.20
2023-05-12T14:43:20.850Z,2.40
2023-05-12T14:53:24.512Z,2.40
2023-05-12T15:03:27.972Z,2.10
2023-05-12T15:13:31.711Z,2.40
2023-05-12T15:23:34.833Z,2.20
2023-05-12T15:33:39.481Z,2.30
2023-05-12T15:43:42.717Z,4.50
2023-05-12T15:53:45.912Z,3.20
2023-05-12T16:03:53.898Z,10.00
2023-05-12T16:14:00.036Z,4.90
2023-05-12T16:24:03.600Z,4.40
2023-05-12T16:34:07.151Z,3.70
2023-05-12T16:44:10.631Z,3.40
2023-05-12T16:54:13.877Z,4.30
2023-05-12T17:04:17.387Z,3.20
2023-05-12T17:14:20.557Z,2.80
2023-05-12T17:24:23.621Z,2.90
2023-05-12T17:34:28.616Z,3.40
2023-05-12T17:44:31.713Z,4.10
2023-05-12T17:54:35.122Z,4.60
2023-05-12T18:04:38.161Z,4.20
2023-05-12T18:14:41.291Z,4.60
2023-05-12T18:24:44.629Z,5.10
2023-05-12T18:34:47.840Z,8.20
2023-05-12T18:44:51.427Z,11.50
2023-05-12T18:54:54.762Z,10.80
2023-05-12T19:04:57.935Z,10.90
2023-05-12T19:15:01.088Z,9.40
2023-05-12T19:25:04.692Z,9.40
2023-05-12T19:35:10.717Z,8.60
2023-05-12T19:45:13.982Z,7.40
2023-05-12T19:55:17.254Z,8.00
2023-05-12T20:05:20.577Z,8.50
2023-05-12T20:15:24.044Z,10.90
2023-05-12T20:25:28.672Z,7.70
2023-05-12T20:35:32.473Z,8.00
2023-05-12T20:45:36.493Z,9.10
2023-05-12T20:55:43.199Z,12.30
2023-05-12T21:05:48.267Z,11.80
2023-05-12T21:15:51.678Z,10.50
2023-05-12T21:25:54.956Z,9.80
2023-05-12T21:35:58.605Z,8.50
2023-05-12T21:46:05.816Z,8.20
2023-05-12T21:56:09.064Z,9.70
2023-05-12T22:06:12.482Z,10.10
2023-05-12T22:16:16.596Z,9.30
2023-05-12T22:26:19.910Z,8.50
2023-05-12T22:36:23.165Z,8.10
2023-05-12T22:46:26.245Z,7.60
2023-05-12T22:56:29.296Z,7.20
2023-05-12T23:06:32.673Z,7.90
2023-05-12T23:16:36.074Z,6.80
2023-05-12T23:26:39.331Z,7.70
2023-05-12T23:36:42.578Z,7.30
2023-05-12T23:46:46.700Z,6.40
2023-05-12T23:56:49.943Z,7.60
